sensor_id;sensor_type;location;lat;lon;timestamp;P1;durP1;ratioP1;P2;durP2;ratioP2
23142;SDS011;11740;51.168;4.112;2024-02-04T00:02:24;28.65;;;13.95;;
23142;SDS011;11740;51.168;4.112;2024-02-04T00:04:52;26.13;;;13.60;;
23142;SDS011;11740;51.168;4.112;2024-02-04T00:07:19;26.80;;;13.82;;
23142;SDS011;11740;51.168;4.112;2024-02-04T00:09:48;27.27;;;13.63;;
23142;SDS011;11740;51.168;4.112;2024-02-04T00:12:15;28.65;;;13.55;;
23142;SDS011;11740;51.168;4.112;2024-02-04T00:14:43;33.65;;;13.25;;
23142;SDS011;11740;51.168;4.112;2024-02-04T00:17:10;28.45;;;13.05;;
23142;SDS011;11740;51.168;4.112;2024-02-04T00:19:38;23.15;;;13.02;;
23142;SDS011;11740;51.168;4.112;2024-02-04T00:22:05;33.15;;;13.95;;
23142;SDS011;11740;51.168;4.112;2024-02-04T00:24:33;31.83;;;13.57;;
23142;SDS011;11740;51.168;4.112;2024-02-04T00:27:00;28.50;;;13.45;;
23142;SDS011;11740;51.168;4.112;2024-02-04T00:29:27;22.77;;;12.63;;
23142;SDS011;11740;51.168;4.112;2024-02-04T00:31:55;25.98;;;13.32;;
23142;SDS011;11740;51.168;4.112;2024-02-04T00:34:22;27.02;;;13.05;;
23142;SDS011;11740;51.168;4.112;2024-02-04T00:36:50;23.75;;;12.48;;
23142;SDS011;11740;51.168;4.112;2024-02-04T00:39:17;24.10;;;12.43;;
23142;SDS011;11740;51.168;4.112;2024-02-04T00:41:45;23.90;;;13.05;;
23142;SDS011;11740;51.168;4.112;2024-02-04T00:44:12;20.55;;;11.80;;
23142;SDS011;11740;51.168;4.112;2024-02-04T00:46:39;28.67;;;11.60;;
23142;SDS011;11740;51.168;4.112;2024-02-04T00:49:07;25.30;;;11.45;;
23142;SDS011;11740;51.168;4.112;2024-02-04T00:51:34;22.50;;;12.35;;
23142;SDS011;11740;51.168;4.112;2024-02-04T00:54:02;22.92;;;12.15;;
23142;SDS011;11740;51.168;4.112;2024-02-04T00:56:29;24.17;;;12.10;;
23142;SDS011;11740;51.168;4.112;2024-02-04T00:58:57;22.83;;;11.38;;
23142;SDS011;11740;51.168;4.112;2024-02-04T01:01:25;22.48;;;11.85;;
23142;SDS011;11740;51.168;4.112;2024-02-04T01:03:52;17.60;;;11.02;;
23142;SDS011;11740;51.168;4.112;2024-02-04T01:06:20;20.55;;;11.65;;
23142;SDS011;11740;51.168;4.112;2024-02-04T01:08:47;18.60;;;12.23;;
23142;SDS011;11740;51.168;4.112;2024-02-04T01:11:15;24.17;;;12.57;;
23142;SDS011;11740;51.168;4.112;2024-02-04T01:13:42;28.92;;;12.93;;
23142;SDS011;11740;51.168;4.112;2024-02-04T01:16:10;24.73;;;12.95;;
23142;SDS011;11740;51.168;4.112;2024-02-04T01:18:37;31.17;;;14.82;;
23142;SDS011;11740;51.168;4.112;2024-02-04T01:21:05;23.85;;;15.52;;
23142;SDS011;11740;51.168;4.112;2024-02-04T01:23:32;31.17;;;16.02;;
23142;SDS011;11740;51.168;4.112;2024-02-04T01:25:59;27.15;;;16.10;;
23142;SDS011;11740;51.168;4.112;2024-02-04T01:28:27;38.00;;;16.77;;
23142;SDS011;11740;51.168;4.112;2024-02-04T01:30:54;32.67;;;16.42;;
23142;SDS011;11740;51.168;4.112;2024-02-04T01:33:22;36.50;;;17.30;;
23142;SDS011;11740;51.168;4.112;2024-02-04T01:35:49;37.08;;;17.77;;
23142;SDS011;11740;51.168;4.112;2024-02-04T01:38:18;40.67;;;17.77;;
23142;SDS011;11740;51.168;4.112;2024-02-04T01:40:45;33.78;;;18.00;;
23142;SDS011;11740;51.168;4.112;2024-02-04T01:43:13;37.33;;;17.88;;
23142;SDS011;11740;51.168;4.112;2024-02-04T01:45:40;36.72;;;17.98;;
23142;SDS011;11740;51.168;4.112;2024-02-04T01:48:07;39.28;;;18.42;;
23142;SDS011;11740;51.168;4.112;2024-02-04T01:50:35;41.22;;;18.02;;
23142;SDS011;11740;51.168;4.112;2024-02-04T01:53:03;38.17;;;18.08;;
23142;SDS011;11740;51.168;4.112;2024-02-04T01:55:30;40.70;;;17.60;;
23142;SDS011;11740;51.168;4.112;2024-02-04T01:57:58;34.97;;;17.15;;
23142;SDS011;11740;51.168;4.112;2024-02-04T02:00:25;31.65;;;18.13;;
23142;SDS011;11740;51.168;4.112;2024-02-04T02:02:53;49.30;;;18.83;;
23142;SDS011;11740;51.168;4.112;2024-02-04T02:05:20;38.28;;;18.90;;
23142;SDS011;11740;51.168;4.112;2024-02-04T02:07:48;42.13;;;19.55;;
23142;SDS011;11740;51.168;4.112;2024-02-04T02:10:18;41.30;;;18.45;;
23142;SDS011;11740;51.168;4.112;2024-02-04T02:12:57;42.35;;;18.95;;
23142;SDS011;11740;51.168;4.112;2024-02-04T02:15:34;40.38;;;19.08;;
23142;SDS011;11740;51.168;4.112;2024-02-04T02:18:18;33.30;;;18.02;;
23142;SDS011;11740;51.168;4.112;2024-02-04T02:23:30;38.65;;;18.75;;
23142;SDS011;11740;51.168;4.112;2024-02-04T02:26:02;37.65;;;18.05;;
23142;SDS011;11740;51.168;4.112;2024-02-04T02:28:31;43.30;;;18.75;;
23142;SDS011;11740;51.168;4.112;2024-02-04T02:30:58;42.47;;;18.40;;
23142;SDS011;11740;51.168;4.112;2024-02-04T02:33:29;39.33;;;18.67;;
23142;SDS011;11740;51.168;4.112;2024-02-04T02:35:57;41.35;;;19.15;;
23142;SDS011;11740;51.168;4.112;2024-02-04T02:38:26;44.60;;;18.80;;
23142;SDS011;11740;51.168;4.112;2024-02-04T02:41:12;43.92;;;19.58;;
23142;SDS011;11740;51.168;4.112;2024-02-04T02:43:42;40.03;;;19.02;;
23142;SDS011;11740;51.168;4.112;2024-02-04T02:46:10;37.78;;;18.85;;
23142;SDS011;11740;51.168;4.112;2024-02-04T02:48:38;40.80;;;17.83;;
23142;SDS011;11740;51.168;4.112;2024-02-04T02:51:05;40.60;;;18.42;;
23142;SDS011;11740;51.168;4.112;2024-02-04T02:53:33;41.67;;;17.77;;
23142;SDS011;11740;51.168;4.112;2024-02-04T02:56:00;35.53;;;18.55;;
23142;SDS011;11740;51.168;4.112;2024-02-04T02:58:28;40.88;;;18.80;;
23142;SDS011;11740;51.168;4.112;2024-02-04T03:00:55;40.53;;;18.38;;
23142;SDS011;11740;51.168;4.112;2024-02-04T03:03:22;39.53;;;18.67;;
23142;SDS011;11740;51.168;4.112;2024-02-04T03:05:50;36.75;;;16.83;;
23142;SDS011;11740;51.168;4.112;2024-02-04T03:08:18;33.15;;;16.77;;
23142;SDS011;11740;51.168;4.112;2024-02-04T03:10:45;34.38;;;16.77;;
23142;SDS011;11740;51.168;4.112;2024-02-04T03:13:12;34.53;;;15.73;;
23142;SDS011;11740;51.168;4.112;2024-02-04T03:15:40;32.28;;;15.38;;
23142;SDS011;11740;51.168;4.112;2024-02-04T03:18:08;26.40;;;15.23;;
23142;SDS011;11740;51.168;4.112;2024-02-04T03:20:37;32.38;;;15.50;;
23142;SDS011;11740;51.168;4.112;2024-02-04T03:23:04;37.20;;;15.35;;
23142;SDS011;11740;51.168;4.112;2024-02-04T03:25:31;32.67;;;14.02;;
23142;SDS011;11740;51.168;4.112;2024-02-04T03:27:59;29.10;;;13.98;;
23142;SDS011;11740;51.168;4.112;2024-02-04T03:30:26;27.23;;;14.23;;
23142;SDS011;11740;51.168;4.112;2024-02-04T03:32:54;32.72;;;15.00;;
23142;SDS011;11740;51.168;4.112;2024-02-04T03:35:21;30.27;;;15.75;;
23142;SDS011;11740;51.168;4.112;2024-02-04T03:37:48;30.85;;;14.60;;
23142;SDS011;11740;51.168;4.112;2024-02-04T03:40:16;30.33;;;15.35;;
23142;SDS011;11740;51.168;4.112;2024-02-04T03:42:45;31.33;;;16.08;;
23142;SDS011;11740;51.168;4.112;2024-02-04T03:45:13;30.60;;;16.27;;
23142;SDS011;11740;51.168;4.112;2024-02-04T03:47:40;29.45;;;16.63;;
23142;SDS011;11740;51.168;4.112;2024-02-04T03:50:08;30.23;;;16.90;;
23142;SDS011;11740;51.168;4.112;2024-02-04T03:52:35;30.95;;;17.25;;
23142;SDS011;11740;51.168;4.112;2024-02-04T03:55:03;34.83;;;17.45;;
23142;SDS011;11740;51.168;4.112;2024-02-04T03:57:32;25.92;;;16.30;;
23142;SDS011;11740;51.168;4.112;2024-02-04T03:59:59;25.48;;;16.25;;
23142;SDS011;11740;51.168;4.112;2024-02-04T04:02:27;30.10;;;16.85;;
23142;SDS011;11740;51.168;4.112;2024-02-04T04:04:54;29.67;;;16.67;;
23142;SDS011;11740;51.168;4.112;2024-02-04T04:07:22;28.75;;;16.50;;
23142;SDS011;11740;51.168;4.112;2024-02-04T04:09:49;26.13;;;15.90;;
23142;SDS011;11740;51.168;4.112;2024-02-04T04:12:16;33.63;;;17.10;;
23142;SDS011;11740;51.168;4.112;2024-02-04T04:14:44;28.73;;;17.17;;
23142;SDS011;11740;51.168;4.112;2024-02-04T04:17:11;29.15;;;17.05;;
23142;SDS011;11740;51.168;4.112;2024-02-04T04:19:39;26.98;;;16.58;;
23142;SDS011;11740;51.168;4.112;2024-02-04T04:22:06;27.45;;;16.38;;
23142;SDS011;11740;51.168;4.112;2024-02-04T04:24:34;32.97;;;17.58;;
23142;SDS011;11740;51.168;4.112;2024-02-04T04:27:02;30.77;;;16.13;;
23142;SDS011;11740;51.168;4.112;2024-02-04T04:29:29;33.28;;;16.92;;
23142;SDS011;11740;51.168;4.112;2024-02-04T04:31:57;28.42;;;16.10;;
23142;SDS011;11740;51.168;4.112;2024-02-04T04:34:24;28.08;;;15.90;;
23142;SDS011;11740;51.168;4.112;2024-02-04T04:36:51;36.40;;;16.45;;
23142;SDS011;11740;51.168;4.112;2024-02-04T04:39:19;33.22;;;15.90;;
23142;SDS011;11740;51.168;4.112;2024-02-04T04:41:46;31.17;;;15.85;;
23142;SDS011;11740;51.168;4.112;2024-02-04T04:44:13;34.92;;;16.13;;
23142;SDS011;11740;51.168;4.112;2024-02-04T04:46:41;30.58;;;14.93;;
23142;SDS011;11740;51.168;4.112;2024-02-04T04:49:09;32.35;;;14.63;;
23142;SDS011;11740;51.168;4.112;2024-02-04T04:51:36;28.13;;;14.60;;
23142;SDS011;11740;51.168;4.112;2024-02-04T04:54:04;30.58;;;14.10;;
23142;SDS011;11740;51.168;4.112;2024-02-04T04:56:37;28.17;;;14.30;;
23142;SDS011;11740;51.168;4.112;2024-02-04T04:59:08;26.88;;;13.35;;
23142;SDS011;11740;51.168;4.112;2024-02-04T05:01:35;27.55;;;15.18;;
23142;SDS011;11740;51.168;4.112;2024-02-04T05:04:03;27.25;;;15.45;;
23142;SDS011;11740;51.168;4.112;2024-02-04T05:06:31;26.15;;;14.82;;
23142;SDS011;11740;51.168;4.112;2024-02-04T05:08:58;27.17;;;14.82;;
23142;SDS011;11740;51.168;4.112;2024-02-04T05:11:26;27.92;;;15.23;;
23142;SDS011;11740;51.168;4.112;2024-02-04T05:13:53;26.38;;;15.13;;
23142;SDS011;11740;51.168;4.112;2024-02-04T05:16:20;28.27;;;14.63;;
23142;SDS011;11740;51.168;4.112;2024-02-04T05:18:48;31.13;;;15.35;;
23142;SDS011;11740;51.168;4.112;2024-02-04T05:21:15;30.80;;;14.88;;
23142;SDS011;11740;51.168;4.112;2024-02-04T05:23:43;25.58;;;14.68;;
23142;SDS011;11740;51.168;4.112;2024-02-04T05:26:10;26.00;;;14.63;;
23142;SDS011;11740;51.168;4.112;2024-02-04T05:28:37;23.63;;;12.02;;
23142;SDS011;11740;51.168;4.112;2024-02-04T05:31:05;27.23;;;12.93;;
23142;SDS011;11740;51.168;4.112;2024-02-04T05:33:32;25.77;;;11.82;;
23142;SDS011;11740;51.168;4.112;2024-02-04T05:36:00;28.98;;;12.20;;
23142;SDS011;11740;51.168;4.112;2024-02-04T05:38:27;22.80;;;10.85;;
23142;SDS011;11740;51.168;4.112;2024-02-04T05:40:55;27.83;;;11.60;;
23142;SDS011;11740;51.168;4.112;2024-02-04T05:43:22;30.48;;;11.10;;
23142;SDS011;11740;51.168;4.112;2024-02-04T05:45:49;22.25;;;10.43;;
23142;SDS011;11740;51.168;4.112;2024-02-04T05:48:17;21.52;;;11.13;;
23142;SDS011;11740;51.168;4.112;2024-02-04T05:50:45;22.10;;;9.60;;
23142;SDS011;11740;51.168;4.112;2024-02-04T05:53:12;23.05;;;10.13;;
23142;SDS011;11740;51.168;4.112;2024-02-04T05:55:39;26.33;;;10.07;;
23142;SDS011;11740;51.168;4.112;2024-02-04T05:58:07;21.08;;;9.80;;
23142;SDS011;11740;51.168;4.112;2024-02-04T06:00:34;24.98;;;9.75;;
23142;SDS011;11740;51.168;4.112;2024-02-04T06:03:02;25.13;;;9.38;;
23142;SDS011;11740;51.168;4.112;2024-02-04T06:05:29;21.77;;;8.70;;
23142;SDS011;11740;51.168;4.112;2024-02-04T06:07:57;24.23;;;8.48;;
23142;SDS011;11740;51.168;4.112;2024-02-04T06:10:24;24.10;;;8.68;;
23142;SDS011;11740;51.168;4.112;2024-02-04T06:12:51;30.17;;;9.68;;
23142;SDS011;11740;51.168;4.112;2024-02-04T06:15:19;22.52;;;8.73;;
23142;SDS011;11740;51.168;4.112;2024-02-04T06:17:47;20.80;;;8.10;;
23142;SDS011;11740;51.168;4.112;2024-02-04T06:20:15;20.60;;;8.80;;
23142;SDS011;11740;51.168;4.112;2024-02-04T06:22:42;20.00;;;8.77;;
23142;SDS011;11740;51.168;4.112;2024-02-04T06:25:09;24.27;;;9.48;;
23142;SDS011;11740;51.168;4.112;2024-02-04T06:27:37;16.45;;;9.27;;
23142;SDS011;11740;51.168;4.112;2024-02-04T06:30:05;26.40;;;10.90;;
23142;SDS011;11740;51.168;4.112;2024-02-04T06:32:36;20.17;;;9.60;;
23142;SDS011;11740;51.168;4.112;2024-02-04T06:35:03;21.23;;;11.52;;
23142;SDS011;11740;51.168;4.112;2024-02-04T06:37:31;19.60;;;12.55;;
23142;SDS011;11740;51.168;4.112;2024-02-04T06:39:59;23.40;;;11.18;;
23142;SDS011;11740;51.168;4.112;2024-02-04T06:42:26;25.77;;;12.13;;
23142;SDS011;11740;51.168;4.112;2024-02-04T06:44:54;21.60;;;13.88;;
23142;SDS011;11740;51.168;4.112;2024-02-04T06:47:21;22.52;;;13.43;;
23142;SDS011;11740;51.168;4.112;2024-02-04T06:49:48;22.40;;;14.45;;
23142;SDS011;11740;51.168;4.112;2024-02-04T06:52:16;24.80;;;14.88;;
23142;SDS011;11740;51.168;4.112;2024-02-04T06:54:44;23.23;;;15.40;;
23142;SDS011;11740;51.168;4.112;2024-02-04T06:57:12;26.20;;;15.05;;
23142;SDS011;11740;51.168;4.112;2024-02-04T06:59:39;23.70;;;13.90;;
23142;SDS011;11740;51.168;4.112;2024-02-04T07:02:07;23.40;;;13.98;;
23142;SDS011;11740;51.168;4.112;2024-02-04T07:04:34;28.15;;;14.52;;
23142;SDS011;11740;51.168;4.112;2024-02-04T07:07:02;26.30;;;14.00;;
23142;SDS011;11740;51.168;4.112;2024-02-04T07:09:29;31.20;;;13.05;;
23142;SDS011;11740;51.168;4.112;2024-02-04T07:11:57;21.95;;;12.30;;
23142;SDS011;11740;51.168;4.112;2024-02-04T07:14:24;24.33;;;11.63;;
23142;SDS011;11740;51.168;4.112;2024-02-04T07:16:52;18.90;;;11.13;;
23142;SDS011;11740;51.168;4.112;2024-02-04T07:19:19;19.73;;;11.38;;
23142;SDS011;11740;51.168;4.112;2024-02-04T07:21:47;20.42;;;11.40;;
23142;SDS011;11740;51.168;4.112;2024-02-04T07:24:14;21.23;;;11.25;;
23142;SDS011;11740;51.168;4.112;2024-02-04T07:26:41;23.45;;;11.57;;
23142;SDS011;11740;51.168;4.112;2024-02-04T07:29:09;20.40;;;11.57;;
23142;SDS011;11740;51.168;4.112;2024-02-04T07:31:36;20.55;;;10.95;;
23142;SDS011;11740;51.168;4.112;2024-02-04T07:34:04;17.52;;;9.77;;
23142;SDS011;11740;51.168;4.112;2024-02-04T07:36:32;13.32;;;9.45;;
23142;SDS011;11740;51.168;4.112;2024-02-04T07:38:59;15.40;;;9.48;;
23142;SDS011;11740;51.168;4.112;2024-02-04T07:41:30;17.67;;;10.50;;
23142;SDS011;11740;51.168;4.112;2024-02-04T07:44:00;19.35;;;9.50;;
23142;SDS011;11740;51.168;4.112;2024-02-04T07:46:27;15.35;;;8.20;;
23142;SDS011;11740;51.168;4.112;2024-02-04T07:48:54;15.80;;;7.60;;
23142;SDS011;11740;51.168;4.112;2024-02-04T07:51:22;12.00;;;7.60;;
23142;SDS011;11740;51.168;4.112;2024-02-04T07:53:50;12.98;;;6.85;;
23142;SDS011;11740;51.168;4.112;2024-02-04T07:56:17;13.65;;;7.20;;
23142;SDS011;11740;51.168;4.112;2024-02-04T07:58:44;14.07;;;6.63;;
23142;SDS011;11740;51.168;4.112;2024-02-04T08:01:12;13.52;;;6.82;;
23142;SDS011;11740;51.168;4.112;2024-02-04T08:03:40;13.80;;;6.60;;
23142;SDS011;11740;51.168;4.112;2024-02-04T08:06:07;14.20;;;6.50;;
23142;SDS011;11740;51.168;4.112;2024-02-04T08:08:35;11.25;;;6.13;;
23142;SDS011;11740;51.168;4.112;2024-02-04T08:11:03;12.43;;;5.97;;
23142;SDS011;11740;51.168;4.112;2024-02-04T08:13:30;11.95;;;5.57;;
23142;SDS011;11740;51.168;4.112;2024-02-04T08:15:57;15.73;;;6.30;;
23142;SDS011;11740;51.168;4.112;2024-02-04T08:18:25;11.40;;;5.60;;
23142;SDS011;11740;51.168;4.112;2024-02-04T08:20:53;12.32;;;6.30;;
23142;SDS011;11740;51.168;4.112;2024-02-04T08:23:20;11.60;;;5.65;;
23142;SDS011;11740;51.168;4.112;2024-02-04T08:25:47;13.57;;;5.80;;
23142;SDS011;11740;51.168;4.112;2024-02-04T08:28:16;14.40;;;5.82;;
23142;SDS011;11740;51.168;4.112;2024-02-04T08:30:44;13.40;;;5.78;;
23142;SDS011;11740;51.168;4.112;2024-02-04T08:33:11;12.27;;;5.32;;
23142;SDS011;11740;51.168;4.112;2024-02-04T08:35:39;10.55;;;5.00;;
23142;SDS011;11740;51.168;4.112;2024-02-04T08:38:06;10.75;;;5.93;;
23142;SDS011;11740;51.168;4.112;2024-02-04T08:40:34;13.65;;;6.35;;
23142;SDS011;11740;51.168;4.112;2024-02-04T08:43:01;8.43;;;5.00;;
23142;SDS011;11740;51.168;4.112;2024-02-04T08:45:29;10.93;;;5.30;;
23142;SDS011;11740;51.168;4.112;2024-02-04T08:47:56;14.93;;;5.38;;
23142;SDS011;11740;51.168;4.112;2024-02-04T08:50:24;13.20;;;5.38;;
23142;SDS011;11740;51.168;4.112;2024-02-04T08:52:51;14.73;;;4.93;;
23142;SDS011;11740;51.168;4.112;2024-02-04T08:55:18;11.75;;;4.72;;
23142;SDS011;11740;51.168;4.112;2024-02-04T08:57:46;11.85;;;4.55;;
23142;SDS011;11740;51.168;4.112;2024-02-04T09:00:15;8.85;;;4.78;;
23142;SDS011;11740;51.168;4.112;2024-02-04T09:02:43;7.40;;;4.57;;
23142;SDS011;11740;51.168;4.112;2024-02-04T09:05:10;12.88;;;4.25;;
23142;SDS011;11740;51.168;4.112;2024-02-04T09:07:38;13.43;;;4.05;;
23142;SDS011;11740;51.168;4.112;2024-02-04T09:10:06;10.98;;;4.15;;
23142;SDS011;11740;51.168;4.112;2024-02-04T09:12:37;10.00;;;3.90;;
23142;SDS011;11740;51.168;4.112;2024-02-04T09:15:05;10.38;;;3.83;;
23142;SDS011;11740;51.168;4.112;2024-02-04T09:17:32;9.82;;;4.40;;
23142;SDS011;11740;51.168;4.112;2024-02-04T09:20:00;11.00;;;4.20;;
23142;SDS011;11740;51.168;4.112;2024-02-04T09:22:29;15.35;;;4.10;;
23142;SDS011;11740;51.168;4.112;2024-02-04T09:24:56;9.43;;;4.05;;
23142;SDS011;11740;51.168;4.112;2024-02-04T09:27:24;14.05;;;4.30;;
23142;SDS011;11740;51.168;4.112;2024-02-04T09:29:52;6.68;;;3.50;;
23142;SDS011;11740;51.168;4.112;2024-02-04T09:32:21;13.23;;;4.60;;
23142;SDS011;11740;51.168;4.112;2024-02-04T09:34:49;11.93;;;4.80;;
23142;SDS011;11740;51.168;4.112;2024-02-04T09:37:17;9.50;;;3.90;;
23142;SDS011;11740;51.168;4.112;2024-02-04T09:39:44;11.52;;;4.47;;
23142;SDS011;11740;51.168;4.112;2024-02-04T09:42:14;10.50;;;4.32;;
23142;SDS011;11740;51.168;4.112;2024-02-04T09:44:50;11.85;;;3.65;;
23142;SDS011;11740;51.168;4.112;2024-02-04T09:47:18;11.63;;;3.85;;
23142;SDS011;11740;51.168;4.112;2024-02-04T09:49:51;10.60;;;4.22;;
23142;SDS011;11740;51.168;4.112;2024-02-04T09:52:28;9.65;;;4.18;;
23142;SDS011;11740;51.168;4.112;2024-02-04T09:55:00;10.18;;;3.92;;
23142;SDS011;11740;51.168;4.112;2024-02-04T09:57:30;7.13;;;3.53;;
23142;SDS011;11740;51.168;4.112;2024-02-04T09:59:58;8.23;;;3.60;;
23142;SDS011;11740;51.168;4.112;2024-02-04T10:02:26;8.68;;;3.22;;
23142;SDS011;11740;51.168;4.112;2024-02-04T10:04:54;9.15;;;2.97;;
23142;SDS011;11740;51.168;4.112;2024-02-04T10:07:21;9.68;;;3.05;;
23142;SDS011;11740;51.168;4.112;2024-02-04T10:09:50;10.75;;;3.22;;
23142;SDS011;11740;51.168;4.112;2024-02-04T10:12:18;7.70;;;3.05;;
23142;SDS011;11740;51.168;4.112;2024-02-04T10:14:46;7.50;;;2.85;;
23142;SDS011;11740;51.168;4.112;2024-02-04T10:17:13;10.25;;;3.00;;
23142;SDS011;11740;51.168;4.112;2024-02-04T10:19:42;6.72;;;2.45;;
23142;SDS011;11740;51.168;4.112;2024-02-04T10:22:09;7.78;;;2.72;;
23142;SDS011;11740;51.168;4.112;2024-02-04T10:24:37;7.15;;;2.67;;
23142;SDS011;11740;51.168;4.112;2024-02-04T10:27:04;5.22;;;2.42;;
23142;SDS011;11740;51.168;4.112;2024-02-04T10:29:36;7.82;;;2.67;;
23142;SDS011;11740;51.168;4.112;2024-02-04T10:32:04;10.27;;;3.10;;
23142;SDS011;11740;51.168;4.112;2024-02-04T10:34:31;7.45;;;2.55;;
23142;SDS011;11740;51.168;4.112;2024-02-04T10:36:59;5.15;;;2.60;;
23142;SDS011;11740;51.168;4.112;2024-02-04T10:39:27;6.85;;;2.72;;
23142;SDS011;11740;51.168;4.112;2024-02-04T10:41:54;8.27;;;2.72;;
23142;SDS011;11740;51.168;4.112;2024-02-04T10:44:25;7.10;;;2.80;;
23142;SDS011;11740;51.168;4.112;2024-02-04T10:46:53;6.93;;;2.90;;
23142;SDS011;11740;51.168;4.112;2024-02-04T10:49:21;6.75;;;3.33;;
23142;SDS011;11740;51.168;4.112;2024-02-04T10:51:50;7.72;;;3.50;;
23142;SDS011;11740;51.168;4.112;2024-02-04T10:54:18;11.77;;;3.10;;
23142;SDS011;11740;51.168;4.112;2024-02-04T10:56:52;11.55;;;3.33;;
23142;SDS011;11740;51.168;4.112;2024-02-04T10:59:23;7.65;;;3.63;;
23142;SDS011;11740;51.168;4.112;2024-02-04T11:01:51;9.95;;;3.75;;
23142;SDS011;11740;51.168;4.112;2024-02-04T11:04:19;11.10;;;3.97;;
23142;SDS011;11740;51.168;4.112;2024-02-04T11:06:46;9.27;;;3.95;;
23142;SDS011;11740;51.168;4.112;2024-02-04T11:09:15;7.88;;;4.07;;
23142;SDS011;11740;51.168;4.112;2024-02-04T11:11:43;9.02;;;4.40;;
23142;SDS011;11740;51.168;4.112;2024-02-04T11:14:12;11.02;;;4.50;;
23142;SDS011;11740;51.168;4.112;2024-02-04T11:22:09;11.05;;;4.80;;
23142;SDS011;11740;51.168;4.112;2024-02-04T11:27:32;10.77;;;4.80;;
23142;SDS011;11740;51.168;4.112;2024-02-04T11:29:59;11.02;;;4.38;;
23142;SDS011;11740;51.168;4.112;2024-02-04T11:32:27;13.77;;;4.80;;
23142;SDS011;11740;51.168;4.112;2024-02-04T11:34:55;11.32;;;5.22;;
23142;SDS011;11740;51.168;4.112;2024-02-04T11:37:27;12.00;;;4.95;;
23142;SDS011;11740;51.168;4.112;2024-02-04T11:39:56;10.05;;;4.80;;
23142;SDS011;11740;51.168;4.112;2024-02-04T11:42:24;10.88;;;4.65;;
23142;SDS011;11740;51.168;4.112;2024-02-04T11:45:10;11.52;;;4.80;;
23142;SDS011;11740;51.168;4.112;2024-02-04T11:47:39;9.55;;;4.22;;
23142;SDS011;11740;51.168;4.112;2024-02-04T11:50:07;9.43;;;4.15;;
23142;SDS011;11740;51.168;4.112;2024-02-04T11:52:37;9.82;;;4.10;;
23142;SDS011;11740;51.168;4.112;2024-02-04T11:55:12;11.05;;;4.25;;
23142;SDS011;11740;51.168;4.112;2024-02-04T11:57:40;9.13;;;4.00;;
23142;SDS011;11740;51.168;4.112;2024-02-04T12:00:09;10.48;;;3.85;;
23142;SDS011;11740;51.168;4.112;2024-02-04T12:02:37;8.05;;;3.72;;
23142;SDS011;11740;51.168;4.112;2024-02-04T12:05:05;9.80;;;3.65;;
23142;SDS011;11740;51.168;4.112;2024-02-04T12:07:33;10.15;;;3.63;;
23142;SDS011;11740;51.168;4.112;2024-02-04T12:10:01;7.55;;;3.22;;
23142;SDS011;11740;51.168;4.112;2024-02-04T12:12:28;5.75;;;3.03;;
23142;SDS011;11740;51.168;4.112;2024-02-04T12:14:57;6.07;;;2.95;;
23142;SDS011;11740;51.168;4.112;2024-02-04T12:17:27;6.30;;;3.00;;
23142;SDS011;11740;51.168;4.112;2024-02-04T12:19:54;5.88;;;2.72;;
23142;SDS011;11740;51.168;4.112;2024-02-04T12:22:22;6.10;;;2.30;;
23142;SDS011;11740;51.168;4.112;2024-02-04T12:24:49;6.22;;;2.45;;
23142;SDS011;11740;51.168;4.112;2024-02-04T12:27:17;8.95;;;2.70;;
23142;SDS011;11740;51.168;4.112;2024-02-04T12:29:44;6.50;;;2.60;;
23142;SDS011;11740;51.168;4.112;2024-02-04T12:32:13;9.65;;;2.90;;
23142;SDS011;11740;51.168;4.112;2024-02-04T12:34:41;7.32;;;2.10;;
23142;SDS011;11740;51.168;4.112;2024-02-04T12:37:14;7.72;;;2.08;;
23142;SDS011;11740;51.168;4.112;2024-02-04T12:39:41;6.90;;;2.03;;
23142;SDS011;11740;51.168;4.112;2024-02-04T12:42:10;8.93;;;2.58;;
23142;SDS011;11740;51.168;4.112;2024-02-04T12:44:37;5.70;;;1.70;;
23142;SDS011;11740;51.168;4.112;2024-02-04T12:47:05;5.60;;;1.77;;
23142;SDS011;11740;51.168;4.112;2024-02-04T12:49:33;6.15;;;2.25;;
23142;SDS011;11740;51.168;4.112;2024-02-04T12:52:04;5.43;;;1.77;;
23142;SDS011;11740;51.168;4.112;2024-02-04T12:54:42;6.75;;;2.05;;
23142;SDS011;11740;51.168;4.112;2024-02-04T12:57:10;5.75;;;1.80;;
23142;SDS011;11740;51.168;4.112;2024-02-04T12:59:48;5.05;;;1.63;;
23142;SDS011;11740;51.168;4.112;2024-02-04T13:02:15;8.45;;;2.15;;
23142;SDS011;11740;51.168;4.112;2024-02-04T13:04:43;5.85;;;1.95;;
23142;SDS011;11740;51.168;4.112;2024-02-04T13:07:11;4.85;;;1.95;;
23142;SDS011;11740;51.168;4.112;2024-02-04T13:09:41;5.90;;;1.80;;
23142;SDS011;11740;51.168;4.112;2024-02-04T13:12:09;5.75;;;1.80;;
23142;SDS011;11740;51.168;4.112;2024-02-04T13:14:37;5.85;;;1.60;;
23142;SDS011;11740;51.168;4.112;2024-02-04T13:17:05;8.48;;;2.38;;
23142;SDS011;11740;51.168;4.112;2024-02-04T13:19:33;3.90;;;1.40;;
23142;SDS011;11740;51.168;4.112;2024-02-04T13:22:03;4.90;;;1.83;;
23142;SDS011;11740;51.168;4.112;2024-02-04T13:24:31;6.95;;;2.10;;
23142;SDS011;11740;51.168;4.112;2024-02-04T13:26:59;7.50;;;2.10;;
23142;SDS011;11740;51.168;4.112;2024-02-04T13:29:30;7.30;;;2.10;;
23142;SDS011;11740;51.168;4.112;2024-02-04T13:31:58;6.88;;;1.98;;
23142;SDS011;11740;51.168;4.112;2024-02-04T13:34:25;6.88;;;2.10;;
23142;SDS011;11740;51.168;4.112;2024-02-04T13:36:53;6.60;;;1.75;;
23142;SDS011;11740;51.168;4.112;2024-02-04T13:39:20;7.25;;;1.80;;
23142;SDS011;11740;51.168;4.112;2024-02-04T13:41:48;7.97;;;1.67;;
23142;SDS011;11740;51.168;4.112;2024-02-04T13:44:15;9.27;;;2.42;;
23142;SDS011;11740;51.168;4.112;2024-02-04T13:46:43;9.30;;;2.55;;
23142;SDS011;11740;51.168;4.112;2024-02-04T13:49:10;8.30;;;1.88;;
23142;SDS011;11740;51.168;4.112;2024-02-04T13:51:39;9.35;;;2.22;;
23142;SDS011;11740;51.168;4.112;2024-02-04T13:54:11;7.65;;;2.53;;
23142;SDS011;11740;51.168;4.112;2024-02-04T13:56:44;9.10;;;2.60;;
23142;SDS011;11740;51.168;4.112;2024-02-04T13:59:12;10.05;;;2.55;;
23142;SDS011;11740;51.168;4.112;2024-02-04T14:01:40;8.73;;;2.50;;
23142;SDS011;11740;51.168;4.112;2024-02-04T14:04:07;9.90;;;2.63;;
23142;SDS011;11740;51.168;4.112;2024-02-04T14:06:35;7.30;;;2.15;;
23142;SDS011;11740;51.168;4.112;2024-02-04T14:09:03;12.15;;;2.40;;
23142;SDS011;11740;51.168;4.112;2024-02-04T14:11:31;12.50;;;2.95;;
23142;SDS011;11740;51.168;4.112;2024-02-04T14:13:59;13.13;;;2.55;;
23142;SDS011;11740;51.168;4.112;2024-02-04T14:16:26;14.13;;;3.13;;
23142;SDS011;11740;51.168;4.112;2024-02-04T14:18:54;13.18;;;2.50;;
23142;SDS011;11740;51.168;4.112;2024-02-04T14:21:26;9.85;;;2.65;;
23142;SDS011;11740;51.168;4.112;2024-02-04T14:23:54;12.38;;;2.63;;
23142;SDS011;11740;51.168;4.112;2024-02-04T14:26:21;10.02;;;2.20;;
23142;SDS011;11740;51.168;4.112;2024-02-04T14:28:48;10.68;;;2.33;;
23142;SDS011;11740;51.168;4.112;2024-02-04T14:31:17;11.60;;;2.63;;
23142;SDS011;11740;51.168;4.112;2024-02-04T14:33:44;10.30;;;2.50;;
23142;SDS011;11740;51.168;4.112;2024-02-04T14:36:14;10.45;;;2.55;;
23142;SDS011;11740;51.168;4.112;2024-02-04T14:38:41;9.70;;;2.40;;
23142;SDS011;11740;51.168;4.112;2024-02-04T14:41:09;12.05;;;3.03;;
23142;SDS011;11740;51.168;4.112;2024-02-04T14:43:36;9.55;;;2.63;;
23142;SDS011;11740;51.168;4.112;2024-02-04T14:46:03;11.90;;;2.50;;
23142;SDS011;11740;51.168;4.112;2024-02-04T14:48:31;12.27;;;2.80;;